Time,TemperatureF,DewpointF,PressureIn,WindDirection,WindDirectionDegrees,WindSpeedMPH,WindSpeedGustMPH,Humidity,HourlyPrecipIn,Conditions,Clouds,dailyrainin,SoftwareType,DateUTC
2013-09-03 06:50:00,58.2,53.1,29.85,WNW,293,4.9,4.9,83,0.00,,,0.00,WUHU216HW,2013-09-03 04:50:00,
2013-09-03 06:51:00,58.2,53.1,29.85,WNW,293,4.9,4.9,83,0.00,,,0.00,WUHU216HW,2013-09-03 04:51:00,
2013-09-03 06:52:00,58.2,52.8,29.85,NNW,338,4.9,4.9,82,0.00,,,0.00,WUHU216HW,2013-09-03 04:52:00,
2013-09-03 06:57:00,58.6,52.8,29.86,North,0,12.0,12.0,81,0.00,,,0.00,WUHU216HW,2013-09-03 04:57:00,
2013-09-03 07:02:00,59.0,53.2,29.86,NW,315,8.5,15.6,81,0.00,,,0.00,WUHU216HW,2013-09-03 05:02:00,
2013-09-03 07:07:00,59.5,53.2,29.86,NW,315,8.2,15.6,80,0.00,,,0.00,WUHU216HW,2013-09-03 05:07:00,
2013-09-03 07:12:00,59.5,53.6,29.86,WNW,293,6.9,10.2,80,0.00,,,0.00,WUHU216HW,2013-09-03 05:12:00,
2013-09-03 07:17:00,59.9,53.4,29.86,NNW,338,4.9,8.7,79,0.00,,,0.00,WUHU216HW,2013-09-03 05:17:00,
2013-09-03 07:22:00,60.2,53.4,29.86,NW,315,10.7,19.0,78,0.00,,,0.00,WUHU216HW,2013-09-03 05:22:00,
2013-09-03 07:27:00,60.4,53.6,29.86,North,0,5.8,19.0,78,0.00,,,0.00,WUHU216HW,2013-09-03 05:27:00,
2013-09-03 07:32:00,60.6,53.7,29.87,NW,315,2.2,11.6,78,0.00,,,0.00,WUHU216HW,2013-09-03 05:32:00,
2013-09-03 07:37:00,60.6,53.4,29.87,NW,315,2.9,9.1,77,0.00,,,0.00,WUHU216HW,2013-09-03 05:37:00,
2013-09-03 07:42:00,60.9,53.7,29.87,NNW,338,5.3,12.9,77,0.00,,,0.00,WUHU216HW,2013-09-03 05:42:00,
2013-09-03 07:47:00,60.9,53.4,29.88,WNW,293,3.3,12.9,76,0.00,,,0.00,WUHU216HW,2013-09-03 05:47:00,
2013-09-03 07:52:00,61.3,53.5,29.88,West,270,10.9,14.5,76,0.00,,,0.00,WUHU216HW,2013-09-03 05:52:00,
2013-09-03 07:57:00,61.3,53.7,29.87,NNW,338,6.9,14.5,76,0.00,,,0.00,WUHU216HW,2013-09-03 05:57:00,
2013-09-03 08:02:00,61.5,53.5,29.87,West,270,7.3,7.8,75,0.00,,,0.00,WUHU216HW,2013-09-03 06:02:00,
2013-09-03 08:07:00,61.8,53.8,29.88,WNW,293,4.4,16.5,75,0.00,,,0.00,WUHU216HW,2013-09-03 06:07:00,
2013-09-03 08:12:00,61.8,53.8,29.88,NW,315,6.7,16.5,75,0.00,,,0.00,WUHU216HW,2013-09-03 06:12:00,
2013-09-03 08:17:00,61.7,53.6,29.89,NW,315,8.9,9.3,75,0.00,,,0.00,WUHU216HW,2013-09-03 06:17:00,
2013-09-03 08:22:00,61.7,53.6,29.88,West,270,3.5,10.2,75,0.00,,,0.00,WUHU216HW,2013-09-03 06:22:00,
2013-09-03 08:27:00,61.8,53.4,29.89,WNW,293,3.8,10.2,74,0.00,,,0.00,WUHU216HW,2013-09-03 06:27:00,
2013-09-03 08:32:00,62.0,53.6,29.89,WSW,248,0.8,8.9,74,0.00,,,0.00,WUHU216HW,2013-09-03 06:32:00,
2013-09-03 08:37:00,62.2,53.6,29.89,SSE,158,4.4,8.0,74,0.00,,,0.00,WUHU216HW,2013-09-03 06:37:00,
2013-09-03 08:42:00,62.0,54.0,29.89,WSW,248,6.9,13.4,75,0.00,,,0.00,WUHU216HW,2013-09-03 06:42:00,
2013-09-03 08:47:00,62.0,54.0,29.89,NW,315,11.6,13.4,75,0.00,,,0.00,WUHU216HW,2013-09-03 06:47:00,
2013-09-03 08:52:00,62.0,54.2,29.90,West,270,4.0,12.9,76,0.00,,,0.00,WUHU216HW,2013-09-03 06:52:00,
2013-09-03 08:57:00,62.0,54.2,29.90,West,270,2.0,9.6,76,0.00,,,0.00,WUHU216HW,2013-09-03 06:57:00,
2013-09-03 09:02:00,61.8,54.5,29.90,WNW,293,6.9,9.6,77,0.00,,,0.00,WUHU216HW,2013-09-03 07:02:00,
2013-09-03 09:07:00,61.8,54.5,29.90,ESE,113,1.7,9.1,77,0.00,,,0.00,WUHU216HW,2013-09-03 07:07:00,
2013-09-03 09:12:00,61.8,54.5,29.89,WNW,293,6.4,8.7,77,0.00,,,0.00,WUHU216HW,2013-09-03 07:12:00,
2013-09-03 09:17:00,61.8,54.5,29.89,West,270,0.6,8.7,77,0.00,,,0.00,WUHU216HW,2013-09-03 07:17:00,
2013-09-03 09:22:00,61.8,54.5,29.90,West,270,1.5,4.9,78,0.00,,,0.00,WUHU216HW,2013-09-03 07:22:00,
2013-09-03 09:27:00,62.0,54.7,29.90,West,270,8.0,14.7,77,0.00,,,0.00,WUHU216HW,2013-09-03 07:27:00,
2013-09-03 09:32:00,62.2,54.8,29.90,West,270,8.5,14.7,77,0.00,,,0.00,WUHU216HW,2013-09-03 07:32:00,
2013-09-03 09:37:00,62.4,55.0,29.90,NNW,338,0.0,14.7,77,0.00,,,0.00,WUHU216HW,2013-09-03 07:37:00,
2013-09-03 09:42:00,62.6,55.2,29.91,WNW,293,4.9,9.6,77,0.00,,,0.00,WUHU216HW,2013-09-03 07:42:00,
2013-09-03 09:47:00,62.9,55.5,29.90,WNW,293,5.5,9.6,77,0.00,,,0.00,WUHU216HW,2013-09-03 07:47:00,
2013-09-03 09:52:00,62.9,55.2,29.90,NE,45,6.2,6.2,76,0.00,,,0.00,WUHU216HW,2013-09-03 07:52:00,
2013-09-03 09:57:00,63.1,55.4,29.90,West,270,8.9,8.9,76,0.00,,,0.00,WUHU216HW,2013-09-03 07:57:00,
2013-09-03 10:02:00,63.1,55.4,29.91,West,270,4.4,11.6,76,0.00,,,0.00,WUHU216HW,2013-09-03 08:02:00,
2013-09-03 10:07:00,63.3,55.5,29.90,SSW,203,0.0,13.8,76,0.00,,,0.00,WUHU216HW,2013-09-03 08:07:00,
2013-09-03 10:12:00,63.5,55.7,29.91,NW,315,8.2,13.8,76,0.00,,,0.00,WUHU216HW,2013-09-03 08:12:00,
2013-09-03 10:17:00,63.5,55.4,29.91,NW,315,4.9,9.6,75,0.00,,,0.00,WUHU216HW,2013-09-03 08:17:00,
2013-09-03 10:22:00,63.5,55.9,29.91,WSW,248,0.0,9.6,76,0.00,,,0.00,WUHU216HW,2013-09-03 08:22:00,
2013-09-03 10:27:00,63.6,55.9,29.91,WSW,248,2.4,6.9,76,0.00,,,0.00,WUHU216HW,2013-09-03 08:27:00,
2013-09-03 10:32:00,63.6,55.5,29.91,NW,315,7.3,12.9,76,0.00,,,0.00,WUHU216HW,2013-09-03 08:32:00,
2013-09-03 10:37:00,64.0,55.9,29.91,SSE,158,3.8,12.9,75,0.00,,,0.00,WUHU216HW,2013-09-03 08:37:00,
2013-09-03 10:42:00,64.4,56.3,29.91,WSW,248,9.1,9.6,75,0.00,,,0.00,WUHU216HW,2013-09-03 08:42:00,
2013-09-03 10:47:00,64.5,56.4,29.91,SW,225,0.0,9.1,75,0.00,,,0.00,WUHU216HW,2013-09-03 08:47:00,
2013-09-03 10:52:00,64.9,56.4,29.91,NW,315,8.0,8.0,74,0.00,,,0.00,WUHU216HW,2013-09-03 08:52:00,
2013-09-03 10:57:00,65.1,56.6,29.91,West,270,6.9,10.0,74,0.00,,,0.00,WUHU216HW,2013-09-03 08:57:00,
2013-09-03 11:02:00,65.4,56.9,29.91,NNE,23,2.2,12.9,74,0.00,,,0.00,WUHU216HW,2013-09-03 09:02:00,
2013-09-03 11:07:00,66.9,58.3,29.91,West,270,4.2,12.9,74,0.00,,,0.00,WUHU216HW,2013-09-03 09:07:00,
2013-09-03 11:12:00,68.7,59.1,29.90,NW,315,5.3,10.2,72,0.00,,,0.00,WUHU216HW,2013-09-03 09:12:00,
2013-09-03 11:17:00,69.4,59.2,29.91,North,0,2.0,10.2,70,0.00,,,0.00,WUHU216HW,2013-09-03 09:17:00,
2013-09-03 11:22:00,69.8,59.1,29.91,WNW,293,3.1,17.6,69,0.00,,,0.00,WUHU216HW,2013-09-03 09:22:00,
2013-09-03 11:27:00,70.3,59.0,29.91,NW,315,2.4,17.6,68,0.00,,,0.00,WUHU216HW,2013-09-03 09:27:00,
2013-09-03 11:32:00,70.3,59.4,29.91,NNE,23,5.1,15.8,68,0.00,,,0.00,WUHU216HW,2013-09-03 09:32:00,
2013-09-03 11:37:00,71.4,59.8,29.92,WNW,293,2.6,8.9,67,0.00,,,0.00,WUHU216HW,2013-09-03 09:37:00,
2013-09-03 11:42:00,73.2,61.1,29.92,WSW,248,10.0,10.0,66,0.00,,,0.00,WUHU216HW,2013-09-03 09:42:00,
2013-09-03 11:47:00,73.7,60.7,29.92,ENE,68,2.9,10.0,64,0.00,,,0.00,WUHU216HW,2013-09-03 09:47:00,
2013-09-03 11:52:00,74.3,61.3,29.93,NNW,338,12.7,12.7,64,0.00,,,0.00,WUHU216HW,2013-09-03 09:52:00,
2013-09-03 11:57:00,73.7,60.7,29.93,NNE,23,11.6,12.7,64,0.00,,,0.00,WUHU216HW,2013-09-03 09:57:00,
2013-09-03 12:02:00,73.7,60.7,29.94,North,0,6.7,11.6,64,0.00,,,0.00,WUHU216HW,2013-09-03 10:02:00,
2013-09-03 12:07:00,73.2,60.2,29.94,WNW,293,11.1,11.1,64,0.00,,,0.00,WUHU216HW,2013-09-03 10:07:00,
2013-09-03 12:12:00,72.5,59.7,29.94,North,0,4.9,13.1,64,0.00,,,0.00,WUHU216HW,2013-09-03 10:12:00,
2013-09-03 12:17:00,72.1,59.2,29.94,NNW,338,6.0,13.1,64,0.00,,,0.00,WUHU216HW,2013-09-03 10:17:00,
2013-09-03 12:22:00,70.7,58.3,29.95,NW,315,18.5,18.5,65,0.00,,,0.00,WUHU216HW,2013-09-03 10:22:00,
2013-09-03 12:27:00,70.3,58.3,29.94,WSW,248,14.9,18.5,66,0.00,,,0.00,WUHU216HW,2013-09-03 10:27:00,
2013-09-03 12:32:00,70.8,58.9,29.95,NNW,338,8.2,18.1,66,0.00,,,0.00,WUHU216HW,2013-09-03 10:32:00,
2013-09-03 12:37:00,71.7,59.3,29.95,West,270,7.1,11.4,65,0.00,,,0.00,WUHU216HW,2013-09-03 10:37:00,
2013-09-03 12:42:00,71.2,58.8,29.95,NNW,338,4.2,8.2,65,0.00,,,0.00,WUHU216HW,2013-09-03 10:42:00,
2013-09-03 12:47:00,70.3,58.3,29.95,WSW,248,9.6,10.5,66,0.00,,,0.00,WUHU216HW,2013-09-03 10:47:00,
2013-09-03 12:52:00,69.6,57.7,29.95,NNE,23,4.4,11.1,66,0.00,,,0.00,WUHU216HW,2013-09-03 10:52:00,
2013-09-03 12:57:00,69.2,57.7,29.94,WNW,293,0.8,11.1,67,0.00,,,0.00,WUHU216HW,2013-09-03 10:57:00,
2013-09-03 13:02:00,68.9,57.8,29.95,WSW,248,2.6,11.6,68,0.00,,,0.00,WUHU216HW,2013-09-03 11:02:00,
2013-09-03 13:07:00,68.9,58.2,29.94,NNW,338,2.2,11.6,69,0.00,,,0.00,WUHU216HW,2013-09-03 11:07:00,
2013-09-03 13:12:00,69.4,58.7,29.94,WNW,293,11.8,14.7,69,0.00,,,0.00,WUHU216HW,2013-09-03 11:12:00,
2013-09-03 13:17:00,69.9,58.8,29.94,NNW,338,3.8,14.7,68,0.00,,,0.00,WUHU216HW,2013-09-03 11:17:00,
2013-09-03 13:22:00,69.9,59.2,29.94,WNW,293,5.8,10.5,69,0.00,,,0.00,WUHU216HW,2013-09-03 11:22:00,
2013-09-03 13:27:00,70.3,59.6,29.94,North,0,5.1,6.4,69,0.00,,,0.00,WUHU216HW,2013-09-03 11:27:00,
2013-09-03 13:32:00,70.7,59.7,29.95,NNW,338,2.9,6.2,68,0.00,,,0.00,WUHU216HW,2013-09-03 11:32:00,
2013-09-03 13:37:00,70.8,59.3,29.95,NNW,338,4.4,20.1,67,0.00,,,0.00,WUHU216HW,2013-09-03 11:37:00,
2013-09-03 13:42:00,70.3,59.2,29.94,NNW,338,6.4,20.1,68,0.00,,,0.00,WUHU216HW,2013-09-03 11:42:00,
2013-09-03 13:47:00,70.1,59.4,29.95,West,270,11.8,15.8,69,0.00,,,0.00,WUHU216HW,2013-09-03 11:47:00,
2013-09-03 13:52:00,71.7,60.3,29.94,NW,315,8.5,15.6,67,0.00,,,0.00,WUHU216HW,2013-09-03 11:52:00,
2013-09-03 13:57:00,73.7,61.2,29.94,NNW,338,12.9,15.6,65,0.00,,,0.00,WUHU216HW,2013-09-03 11:57:00,
2013-09-03 14:02:00,73.5,60.6,29.94,NW,315,8.7,12.9,64,0.00,,,0.00,WUHU216HW,2013-09-03 12:02:00,
2013-09-03 14:07:00,73.4,60.8,29.94,NNW,338,2.2,11.8,65,0.00,,,0.00,WUHU216HW,2013-09-03 12:07:00,
2013-09-03 14:12:00,75.3,62.0,29.95,NNW,338,3.8,5.3,63,0.00,,,0.00,WUHU216HW,2013-09-03 12:12:00,
2013-09-03 14:17:00,76.8,62.3,29.94,North,0,6.2,6.2,61,0.00,,,0.00,WUHU216HW,2013-09-03 12:17:00,
2013-09-03 14:22:00,76.8,60.8,29.94,NW,315,4.6,7.6,58,0.00,,,0.00,WUHU216HW,2013-09-03 12:22:00,
2013-09-03 14:27:00,75.7,60.4,29.94,NNE,23,6.9,10.5,59,0.00,,,0.00,WUHU216HW,2013-09-03 12:27:00,
2013-09-03 14:32:00,75.5,59.7,29.94,NNW,338,2.6,11.1,58,0.00,,,0.00,WUHU216HW,2013-09-03 12:32:00,
2013-09-03 14:37:00,74.8,58.7,29.94,NW,315,17.2,17.2,58,0.00,,,0.00,WUHU216HW,2013-09-03 12:37:00,
2013-09-03 14:42:00,72.8,57.6,29.94,NW,315,12.0,17.2,59,0.00,,,0.00,WUHU216HW,2013-09-03 12:42:00,
2013-09-03 14:47:00,71.9,57.7,29.95,NNW,338,13.1,13.1,61,0.00,,,0.00,WUHU216HW,2013-09-03 12:47:00,
2013-09-03 14:52:00,71.4,57.2,29.95,NW,315,0.0,13.4,61,0.00,,,0.00,WUHU216HW,2013-09-03 12:52:00,
2013-09-03 14:57:00,71.0,57.3,29.95,WNW,293,4.6,13.4,62,0.00,,,0.00,WUHU216HW,2013-09-03 12:57:00,
2013-09-03 15:02:00,70.8,56.7,29.95,North,0,4.6,17.2,61,0.00,,,0.00,WUHU216HW,2013-09-03 13:02:00,
2013-09-03 15:07:00,70.5,56.4,29.95,WSW,248,0.0,17.2,61,0.00,,,0.00,WUHU216HW,2013-09-03 13:07:00,
2013-09-03 15:12:00,71.4,57.2,29.95,West,270,0.0,9.3,61,0.00,,,0.00,WUHU216HW,2013-09-03 13:12:00,
2013-09-03 15:17:00,73.0,58.1,29.94,North,0,4.6,9.3,60,0.00,,,0.00,WUHU216HW,2013-09-03 13:17:00,
2013-09-03 15:22:00,74.4,57.7,29.95,WNW,293,2.6,6.0,56,0.00,,,0.00,WUHU216HW,2013-09-03 13:22:00,
2013-09-03 15:27:00,75.0,58.2,29.95,NW,315,6.2,10.2,56,0.00,,,0.00,WUHU216HW,2013-09-03 13:27:00,
2013-09-03 15:32:00,74.6,57.3,29.95,NW,315,6.0,10.2,55,0.00,,,0.00,WUHU216HW,2013-09-03 13:32:00,
2013-09-03 15:37:00,75.2,57.4,29.95,WNW,293,5.8,8.9,54,0.00,,,0.00,WUHU216HW,2013-09-03 13:37:00,
2013-09-03 15:42:00,75.3,57.5,29.95,North,0,1.3,8.9,53,0.00,,,0.00,WUHU216HW,2013-09-03 13:42:00,
2013-09-03 15:47:00,75.0,56.7,29.95,NW,315,5.1,15.8,53,0.00,,,0.00,WUHU216HW,2013-09-03 13:47:00,
2013-09-03 15:52:00,74.8,57.0,29.95,NNE,23,1.1,15.8,54,0.00,,,0.00,WUHU216HW,2013-09-03 13:52:00,
2013-09-03 15:57:00,74.4,56.1,29.95,NNE,23,0.6,13.1,53,0.00,,,0.00,WUHU216HW,2013-09-03 13:57:00,
2013-09-03 16:02:00,74.3,56.6,29.96,NW,315,0.0,13.1,54,0.00,,,0.00,WUHU216HW,2013-09-03 14:02:00,
2013-09-03 16:07:00,74.8,57.0,29.95,North,0,6.9,11.6,54,0.00,,,0.00,WUHU216HW,2013-09-03 14:07:00,
2013-09-03 16:12:00,74.8,56.0,29.96,NW,315,6.7,18.3,52,0.00,,,0.00,WUHU216HW,2013-09-03 14:12:00,
2013-09-03 16:17:00,74.4,55.6,29.96,WNW,293,2.2,18.3,52,0.00,,,0.00,WUHU216HW,2013-09-03 14:17:00,
2013-09-03 16:22:00,75.0,56.2,29.96,WNW,293,6.0,8.5,52,0.00,,,0.00,WUHU216HW,2013-09-03 14:22:00,
2013-09-03 16:27:00,75.0,56.7,29.96,NNW,338,3.3,7.1,53,0.00,,,0.00,WUHU216HW,2013-09-03 14:27:00,
2013-09-03 16:32:00,74.8,56.0,29.97,NNW,338,7.6,21.4,52,0.00,,,0.00,WUHU216HW,2013-09-03 14:32:00,
2013-09-03 16:37:00,73.5,55.1,29.97,WNW,293,6.0,21.4,52,0.00,,,0.00,WUHU216HW,2013-09-03 14:37:00,
2013-09-03 16:42:00,72.8,54.1,29.96,WNW,293,10.5,16.1,52,0.00,,,0.00,WUHU216HW,2013-09-03 14:42:00,
2013-09-03 16:47:00,72.8,54.6,29.97,North,0,8.0,16.1,53,0.00,,,0.00,WUHU216HW,2013-09-03 14:47:00,
2013-09-03 16:52:00,73.2,54.4,29.97,WNW,293,6.0,18.7,52,0.00,,,0.00,WUHU216HW,2013-09-03 14:52:00,
2013-09-03 16:57:00,73.2,53.9,29.97,West,270,1.5,18.7,51,0.00,,,0.00,WUHU216HW,2013-09-03 14:57:00,
2013-09-03 17:02:00,73.4,54.1,29.98,North,0,7.8,8.5,51,0.00,,,0.00,WUHU216HW,2013-09-03 15:02:00,
2013-09-03 17:07:00,73.9,55.1,29.97,NNW,338,3.3,8.5,52,0.00,,,0.00,WUHU216HW,2013-09-03 15:07:00,
2013-09-03 17:12:00,74.1,54.8,29.97,WNW,293,4.9,6.2,51,0.00,,,0.00,WUHU216HW,2013-09-03 15:12:00,
2013-09-03 17:17:00,73.5,54.7,29.97,NNW,338,5.8,10.5,52,0.00,,,0.00,WUHU216HW,2013-09-03 15:17:00,
2013-09-03 17:22:00,73.0,54.2,29.97,West,270,4.2,10.5,52,0.00,,,0.00,WUHU216HW,2013-09-03 15:22:00,
2013-09-03 17:27:00,72.5,54.8,29.97,WNW,293,6.0,10.2,54,0.00,,,0.00,WUHU216HW,2013-09-03 15:27:00,
2013-09-03 17:32:00,72.3,54.6,29.97,NNW,338,6.2,9.8,54,0.00,,,0.00,WUHU216HW,2013-09-03 15:32:00,
2013-09-03 17:37:00,71.7,54.6,29.97,NW,315,8.9,13.4,55,0.00,,,0.00,WUHU216HW,2013-09-03 15:37:00,
2013-09-03 17:42:00,71.2,54.1,29.97,NW,315,14.5,15.6,55,0.00,,,0.00,WUHU216HW,2013-09-03 15:42:00,
2013-09-03 17:47:00,70.1,53.2,29.97,North,0,6.0,15.6,55,0.00,,,0.00,WUHU216HW,2013-09-03 15:47:00,
2013-09-03 17:52:00,69.0,52.6,29.97,NW,315,14.5,16.5,56,0.00,,,0.00,WUHU216HW,2013-09-03 15:52:00,
2013-09-03 17:57:00,68.3,52.4,29.97,WNW,293,4.6,16.7,57,0.00,,,0.00,WUHU216HW,2013-09-03 15:57:00,
2013-09-03 18:02:00,67.6,52.3,29.97,NNW,338,4.6,16.7,58,0.00,,,0.00,WUHU216HW,2013-09-03 16:02:00,
2013-09-03 18:07:00,67.2,51.9,29.97,NW,315,8.9,12.0,58,0.00,,,0.00,WUHU216HW,2013-09-03 16:07:00,
2013-09-03 18:12:00,66.9,52.1,29.97,East,90,2.4,15.6,59,0.00,,,0.00,WUHU216HW,2013-09-03 16:12:00,
2013-09-03 18:17:00,66.7,51.9,29.97,NNE,23,10.2,15.6,59,0.00,,,0.00,WUHU216HW,2013-09-03 16:17:00,
2013-09-03 18:22:00,66.5,51.8,29.97,NW,315,9.1,10.2,59,0.00,,,0.00,WUHU216HW,2013-09-03 16:22:00,
2013-09-03 18:27:00,66.3,51.6,29.97,NW,315,4.9,9.1,59,0.00,,,0.00,WUHU216HW,2013-09-03 16:27:00,
2013-09-03 18:32:00,66.3,51.6,29.97,WNW,293,7.3,22.5,59,0.00,,,0.00,WUHU216HW,2013-09-03 16:32:00,
2013-09-03 18:37:00,66.2,51.4,29.97,North,0,4.9,22.5,59,0.00,,,0.00,WUHU216HW,2013-09-03 16:37:00,
2013-09-03 18:42:00,66.0,51.8,29.98,WSW,248,1.7,9.1,60,0.00,,,0.00,WUHU216HW,2013-09-03 16:42:00,
2013-09-03 18:47:00,65.8,51.6,29.98,North,0,3.3,7.6,60,0.00,,,0.00,WUHU216HW,2013-09-03 16:47:00,
2013-09-03 18:52:00,65.3,51.4,29.98,WNW,293,0.0,7.3,61,0.00,,,0.00,WUHU216HW,2013-09-03 16:52:00,
2013-09-03 18:57:00,65.1,51.3,29.98,WNW,293,2.6,7.3,61,0.00,,,0.00,WUHU216HW,2013-09-03 16:57:00,
2013-09-03 19:02:00,65.1,51.7,29.98,WSW,248,2.6,4.2,62,0.00,,,0.00,WUHU216HW,2013-09-03 17:02:00,
2013-09-03 19:07:00,64.9,51.5,29.98,SW,225,5.3,8.2,62,0.00,,,0.00,WUHU216HW,2013-09-03 17:07:00,
2013-09-03 19:12:00,64.7,51.3,29.99,West,270,3.8,8.2,62,0.00,,,0.00,WUHU216HW,2013-09-03 17:12:00,
2013-09-03 19:17:00,64.5,51.6,29.99,WSW,248,7.3,7.3,63,0.00,,,0.00,WUHU216HW,2013-09-03 17:17:00,
2013-09-03 19:22:00,64.5,51.6,29.99,WSW,248,5.5,10.9,63,0.00,,,0.00,WUHU216HW,2013-09-03 17:22:00,
2013-09-03 19:27:00,64.2,51.7,29.99,WSW,248,5.1,10.9,64,0.00,,,0.00,WUHU216HW,2013-09-03 17:27:00,
2013-09-03 19:32:00,64.2,51.7,29.99,WNW,293,4.2,11.4,64,0.00,,,0.00,WUHU216HW,2013-09-03 17:32:00,
2013-09-03 19:37:00,64.0,51.9,29.99,NW,315,3.8,11.4,65,0.00,,,0.00,WUHU216HW,2013-09-03 17:37:00,
2013-09-03 19:42:00,63.6,51.6,30.00,West,270,4.0,61.2,65,0.00,,,0.00,WUHU216HW,2013-09-03 17:42:00,
2013-09-03 19:47:00,63.6,51.6,30.00,WNW,293,4.4,61.2,65,0.00,,,0.00,WUHU216HW,2013-09-03 17:47:00,
2013-09-03 19:52:00,63.1,51.5,30.00,West,270,2.0,4.9,66,0.00,,,0.00,WUHU216HW,2013-09-03 17:52:00,
2013-09-03 19:57:00,62.7,51.6,30.00,WSW,248,0.0,8.9,67,0.00,,,0.00,WUHU216HW,2013-09-03 17:57:00,
2013-09-03 20:02:00,62.7,52.0,30.01,South,180,3.8,8.9,68,0.00,,,0.00,WUHU216HW,2013-09-03 18:02:00,
2013-09-03 20:07:00,62.6,51.8,30.02,West,270,6.9,7.1,68,0.00,,,0.00,WUHU216HW,2013-09-03 18:07:00,
2013-09-03 20:12:00,62.7,52.0,30.03,WNW,293,3.1,10.5,68,0.00,,,0.00,WUHU216HW,2013-09-03 18:12:00,
2013-09-03 20:17:00,62.7,52.0,30.03,SW,225,4.6,10.5,68,0.00,,,0.00,WUHU216HW,2013-09-03 18:17:00,
2013-09-03 20:22:00,62.7,52.0,30.04,West,270,9.1,9.1,68,0.00,,,0.00,WUHU216HW,2013-09-03 18:22:00,
2013-09-03 20:27:00,62.7,52.4,30.05,WSW,248,4.6,9.1,69,0.00,,,0.00,WUHU216HW,2013-09-03 18:27:00,
2013-09-03 20:32:00,62.4,52.1,30.05,West,270,5.1,7.6,69,0.00,,,0.00,WUHU216HW,2013-09-03 18:32:00,
2013-09-03 20:37:00,62.2,51.9,30.05,WSW,248,2.2,8.7,69,0.00,,,0.00,WUHU216HW,2013-09-03 18:37:00,
2013-09-03 20:42:00,62.2,52.2,30.06,West,270,4.6,8.7,70,0.00,,,0.00,WUHU216HW,2013-09-03 18:42:00,
2013-09-03 20:47:00,61.8,52.0,30.06,WSW,248,3.8,9.6,70,0.00,,,0.00,WUHU216HW,2013-09-03 18:47:00,